createdAt,value
2022-11-17T00:00:49.921Z,5.80
2022-11-17T00:03:21.521Z,6.53
2022-11-17T00:05:51.335Z,5.63
2022-11-17T00:08:23.231Z,6.82
2022-11-17T00:10:55.603Z,6.30
2022-11-17T00:13:37.875Z,6.55
2022-11-17T00:16:08.328Z,5.70
2022-11-17T00:18:50.651Z,5.97
2022-11-17T00:21:27.009Z,6.03
2022-11-17T00:23:57.134Z,5.50
2022-11-17T00:26:31.166Z,5.55
2022-11-17T00:29:02.600Z,5.38
2022-11-17T00:31:46.552Z,6.15
2022-11-17T00:34:18.461Z,5.50
2022-11-17T00:36:49.813Z,4.97
2022-11-17T00:39:22.239Z,6.00
2022-11-17T00:41:55.622Z,5.22
2022-11-17T00:44:25.466Z,5.47
2022-11-17T00:46:55.353Z,7.15
2022-11-17T00:49:27.370Z,6.05
2022-11-17T00:51:58.233Z,5.40
2022-11-17T00:54:28.676Z,5.82
2022-11-17T00:57:01.202Z,6.13
2022-11-17T00:59:31.020Z,6.50
2022-11-17T01:02:00.849Z,6.70
2022-11-17T01:04:30.632Z,6.50
2022-11-17T01:07:00.501Z,6.38
2022-11-17T01:09:30.338Z,5.97
2022-11-17T01:12:02.750Z,5.88
2022-11-17T01:14:33.171Z,5.60
2022-11-17T01:17:02.951Z,5.93
2022-11-17T01:19:32.920Z,6.50
2022-11-17T01:22:02.673Z,6.13
2022-11-17T01:24:32.555Z,5.53
2022-11-17T01:27:04.883Z,5.47
2022-11-17T01:29:34.900Z,5.90
2022-11-17T01:32:04.638Z,6.35
2022-11-17T01:34:34.530Z,6.57
2022-11-17T01:37:16.762Z,6.07
2022-11-17T01:39:46.594Z,6.28
2022-11-17T01:42:21.189Z,6.00
2022-11-17T01:45:03.640Z,6.07
2022-11-17T01:47:42.448Z,5.78
2022-11-17T01:50:22.547Z,5.50
2022-11-17T01:52:54.963Z,5.55
2022-11-17T01:55:28.050Z,5.80
2022-11-17T01:58:05.426Z,5.65
2022-11-17T02:00:35.576Z,5.93
2022-11-17T02:03:11.293Z,5.80
2022-11-17T02:05:51.225Z,5.45
2022-11-17T02:08:27.159Z,5.53
2022-11-17T02:10:57.468Z,5.70
2022-11-17T02:13:31.247Z,5.93
2022-11-17T02:16:01.325Z,6.05
2022-11-17T02:18:31.233Z,5.93
2022-11-17T02:21:20.841Z,5.68
2022-11-17T02:24:15.307Z,4.63
2022-11-17T02:27:11.527Z,4.97
2022-11-17T02:29:50.815Z,4.72
2022-11-17T02:32:27.305Z,4.80
2022-11-17T02:35:02.157Z,4.00
2022-11-17T02:37:40.820Z,4.10
2022-11-17T02:40:16.946Z,4.20
2022-11-17T02:43:04.664Z,4.43
2022-11-17T02:45:41.207Z,4.72
2022-11-17T02:48:16.436Z,4.43
2022-11-17T02:50:49.126Z,4.60
2022-11-17T02:53:20.565Z,4.25
2022-11-17T02:55:54.338Z,3.90
2022-11-17T02:58:24.506Z,4.05
2022-11-17T03:01:13.037Z,3.88
2022-11-17T03:03:55.557Z,4.63
2022-11-17T03:06:36.400Z,4.35
2022-11-17T03:09:13.440Z,4.50
2022-11-17T03:11:53.627Z,4.18
2022-11-17T03:14:30.280Z,4.80
2022-11-17T03:17:07.307Z,4.05
2022-11-17T03:19:44.276Z,4.43
2022-11-17T03:22:18.944Z,4.32
2022-11-17T03:27:26.536Z,5.10
2022-11-17T03:30:00.764Z,5.10
2022-11-17T03:32:38.864Z,4.07
2022-11-17T03:35:13.116Z,4.60
2022-11-17T03:37:46.505Z,4.20
2022-11-17T03:40:20.065Z,4.40
2022-11-17T03:42:54.076Z,3.70
2022-11-17T03:45:26.988Z,4.60
2022-11-17T03:48:04.723Z,4.20
2022-11-17T03:50:39.164Z,4.60
2022-11-17T03:53:09.623Z,4.85
2022-11-17T03:55:44.442Z,3.92
2022-11-17T03:58:19.096Z,4.75
2022-11-17T04:00:54.506Z,4.53
2022-11-17T04:03:31.302Z,4.40
2022-11-17T04:06:01.084Z,5.53
2022-11-17T04:08:32.660Z,5.63
2022-11-17T04:11:14.941Z,5.25
2022-11-17T04:13:57.374Z,4.68
2022-11-17T04:16:27.286Z,4.22
2022-11-17T04:18:59.699Z,4.30
2022-11-17T04:21:29.717Z,4.75
2022-11-17T04:23:59.708Z,3.78
2022-11-17T04:26:44.614Z,4.00
2022-11-17T04:31:43.979Z,3.83
2022-11-17T04:34:16.432Z,3.47
2022-11-17T04:36:46.529Z,4.00
2022-11-17T04:39:17.570Z,3.83
2022-11-17T04:41:54.193Z,3.63
2022-11-17T04:44:25.614Z,3.42
2022-11-17T04:46:55.798Z,3.72
2022-11-17T04:49:29.272Z,3.38
2022-11-17T04:51:59.154Z,3.53
2022-11-17T04:54:28.949Z,3.30
2022-11-17T04:56:59.148Z,3.58
2022-11-17T04:59:28.911Z,3.65
2022-11-17T05:02:04.109Z,3.33
2022-11-17T05:04:50.717Z,3.50
2022-11-17T05:09:50.230Z,4.10
2022-11-17T05:12:32.679Z,4.13
2022-11-17T05:15:02.648Z,3.97
2022-11-17T05:17:29.829Z,3.65
2022-11-17T05:20:02.195Z,3.72
2022-11-17T05:22:44.460Z,3.63
2022-11-17T05:25:14.570Z,3.67
2022-11-17T05:27:44.421Z,3.95
2022-11-17T05:30:15.436Z,3.70
2022-11-17T05:32:45.201Z,3.92
2022-11-17T05:35:17.738Z,4.32
2022-11-17T05:37:47.472Z,4.70
2022-11-17T05:40:17.654Z,4.10
2022-11-17T05:42:47.488Z,4.78
2022-11-17T05:45:17.305Z,4.82
2022-11-17T05:47:47.059Z,4.47
2022-11-17T05:50:19.646Z,4.30
2022-11-17T05:52:49.443Z,4.25
2022-11-17T05:55:19.219Z,4.28
2022-11-17T05:57:49.622Z,4.20
2022-11-17T06:00:20.021Z,4.10
2022-11-17T06:02:54.120Z,4.10
2022-11-17T06:05:26.686Z,4.05
2022-11-17T06:07:58.735Z,4.80
2022-11-17T06:10:29.504Z,3.95
2022-11-17T06:12:59.325Z,3.88
2022-11-17T06:15:29.238Z,4.13
2022-11-17T06:18:02.116Z,3.53
2022-11-17T06:20:37.628Z,3.42
2022-11-17T06:23:09.936Z,3.70
2022-11-17T06:25:41.299Z,3.20
2022-11-17T06:28:15.473Z,3.47
2022-11-17T06:30:45.738Z,3.00
2022-11-17T06:33:19.245Z,3.15
2022-11-17T06:35:52.868Z,3.40
2022-11-17T06:38:22.680Z,3.27
2022-11-17T06:40:52.479Z,2.90
2022-11-17T06:43:22.228Z,3.00
2022-11-17T06:45:52.035Z,3.00
2022-11-17T06:48:27.040Z,3.25
2022-11-17T06:50:59.478Z,3.17
2022-11-17T06:53:29.280Z,3.35
2022-11-17T06:56:07.161Z,2.72
2022-11-17T06:58:38.290Z,3.05
2022-11-17T07:01:10.135Z,3.25
2022-11-17T07:03:41.512Z,3.67
2022-11-17T07:06:16.087Z,3.33
2022-11-17T07:11:16.905Z,3.20
2022-11-17T07:13:47.107Z,2.35
2022-11-17T07:16:23.594Z,2.97
2022-11-17T07:18:55.136Z,3.00
2022-11-17T07:21:27.728Z,2.80
2022-11-17T07:23:57.566Z,2.30
2022-11-17T07:26:27.503Z,2.75
2022-11-17T07:28:57.424Z,2.80
2022-11-17T07:31:27.223Z,2.47
2022-11-17T07:33:57.247Z,2.80
2022-11-17T07:36:29.704Z,2.95
2022-11-17T07:38:59.471Z,2.80
2022-11-17T07:41:29.300Z,3.13
2022-11-17T07:43:59.150Z,3.70
2022-11-17T07:46:29.018Z,3.83
2022-11-17T07:48:59.073Z,3.65
2022-11-17T07:51:31.487Z,4.00
2022-11-17T07:54:01.278Z,3.60
2022-11-17T07:56:31.111Z,3.00
2022-11-17T07:59:00.904Z,2.78
2022-11-17T08:01:30.812Z,3.20
2022-11-17T08:04:01.163Z,2.47
2022-11-17T08:06:33.583Z,2.65
2022-11-17T08:09:03.360Z,2.58
2022-11-17T08:11:34.249Z,2.53
2022-11-17T08:14:04.208Z,1.75
2022-11-17T08:16:34.101Z,2.03
2022-11-17T08:19:04.495Z,2.35
2022-11-17T08:21:41.052Z,1.73
2022-11-17T08:24:11.187Z,2.03
2022-11-17T08:26:41.127Z,2.08
2022-11-17T08:29:10.988Z,1.70
2022-11-17T08:31:46.007Z,1.55
2022-11-17T08:34:15.849Z,1.50
2022-11-17T08:36:48.161Z,1.13
2022-11-17T08:39:18.145Z,1.23
2022-11-17T08:41:48.665Z,0.80
2022-11-17T08:44:18.421Z,1.00
2022-11-17T08:46:48.991Z,1.13
2022-11-17T08:49:18.748Z,1.10
2022-11-17T08:51:51.097Z,0.82
2022-11-17T08:54:20.945Z,0.88
2022-11-17T08:56:50.762Z,0.98
2022-11-17T08:59:20.601Z,1.15
2022-11-17T09:01:50.379Z,0.68
2022-11-17T09:04:21.099Z,1.00
2022-11-17T09:06:53.564Z,0.50
2022-11-17T09:09:23.760Z,0.90
2022-11-17T09:11:54.164Z,0.80
2022-11-17T09:14:23.980Z,1.05
2022-11-17T09:16:53.958Z,1.25
2022-11-17T09:19:23.795Z,0.90
2022-11-17T09:21:56.162Z,0.70
2022-11-17T09:24:26.773Z,1.05
2022-11-17T09:26:57.498Z,0.90
2022-11-17T09:29:27.664Z,0.88
2022-11-17T09:31:57.672Z,0.60
2022-11-17T09:34:29.264Z,0.60
2022-11-17T09:37:01.696Z,0.90
2022-11-17T09:39:31.515Z,0.70
2022-11-17T09:42:01.798Z,0.90
2022-11-17T09:44:40.565Z,0.60
2022-11-17T09:47:22.200Z,0.57
2022-11-17T09:49:59.707Z,0.60
2022-11-17T09:52:36.706Z,0.60
2022-11-17T09:55:19.584Z,0.47
2022-11-17T09:57:53.133Z,0.57
2022-11-17T10:00:24.691Z,1.25
2022-11-17T10:02:56.848Z,0.60
2022-11-17T10:05:31.701Z,0.88
2022-11-17T10:08:09.884Z,0.73
2022-11-17T10:10:45.687Z,0.57
2022-11-17T10:13:23.613Z,0.77
2022-11-17T10:15:56.234Z,0.60
2022-11-17T10:18:26.576Z,1.88
2022-11-17T10:20:56.440Z,0.80
2022-11-17T10:23:37.791Z,1.35
2022-11-17T10:26:12.137Z,0.95
2022-11-17T10:28:42.204Z,0.88
2022-11-17T10:31:16.101Z,0.77
2022-11-17T10:33:48.261Z,0.80
2022-11-17T10:36:22.636Z,0.90
2022-11-17T10:38:57.132Z,1.00
2022-11-17T10:44:02.771Z,0.90
2022-11-17T10:46:43.205Z,0.93
2022-11-17T10:49:27.693Z,0.90
2022-11-17T10:52:08.510Z,0.93
2022-11-17T10:54:41.404Z,1.20
2022-11-17T10:57:17.303Z,1.42
2022-11-17T10:59:56.526Z,0.95
2022-11-17T11:02:32.659Z,1.00
2022-11-17T11:05:11.710Z,1.00
2022-11-17T11:07:42.257Z,1.20
2022-11-17T11:10:19.590Z,0.80
2022-11-17T11:12:56.548Z,1.40
2022-11-17T11:15:28.537Z,1.02
2022-11-17T11:18:00.097Z,1.45
2022-11-17T11:20:42.155Z,1.45
2022-11-17T11:23:20.905Z,0.88
2022-11-17T11:25:58.243Z,1.35
2022-11-17T11:28:46.217Z,1.30
2022-11-17T11:31:26.948Z,0.80
2022-11-17T11:34:08.395Z,1.10
2022-11-17T11:36:44.197Z,0.73
2022-11-17T11:39:28.924Z,0.88
2022-11-17T11:44:57.460Z,0.93
2022-11-17T11:47:44.843Z,0.82
2022-11-17T11:50:18.706Z,0.85
2022-11-17T11:52:57.217Z,1.00
2022-11-17T11:55:32.298Z,0.65
2022-11-17T11:58:14.182Z,0.65
2022-11-17T12:00:45.536Z,0.90
2022-11-17T12:03:22.707Z,0.90
2022-11-17T12:06:29.522Z,0.80
2022-11-17T12:09:09.763Z,0.85
2022-11-17T12:11:55.251Z,0.82
2022-11-17T12:14:27.837Z,0.75
2022-11-17T12:17:05.421Z,0.88
2022-11-17T12:19:53.300Z,0.85
2022-11-17T12:22:55.977Z,0.88
2022-11-17T12:25:31.823Z,1.10
2022-11-17T12:28:01.820Z,0.80
2022-11-17T12:30:56.280Z,0.80
2022-11-17T12:33:26.631Z,0.90
2022-11-17T12:36:31.072Z,0.60
2022-11-17T12:39:02.558Z,0.65
2022-11-17T12:42:02.503Z,0.80
2022-11-17T12:44:53.575Z,0.98
2022-11-17T12:47:27.941Z,1.52
2022-11-17T12:53:04.287Z,0.63
2022-11-17T12:55:52.724Z,1.00
2022-11-17T12:58:28.920Z,0.73
2022-11-17T13:01:12.043Z,1.35
2022-11-17T13:03:52.156Z,1.23
2022-11-17T13:06:37.480Z,1.00
2022-11-17T13:09:09.807Z,1.13
2022-11-17T13:11:39.740Z,1.10
2022-11-17T13:14:11.993Z,1.70
2022-11-17T13:16:48.796Z,1.33
2022-11-17T13:19:38.137Z,1.52
2022-11-17T13:22:16.455Z,1.10
2022-11-17T13:24:47.726Z,1.33
2022-11-17T13:27:25.894Z,1.73
2022-11-17T13:30:14.031Z,1.13
2022-11-17T13:32:44.776Z,1.30
2022-11-17T13:35:25.841Z,1.60
2022-11-17T13:38:06.649Z,1.80
2022-11-17T13:40:38.265Z,1.52
2022-11-17T13:43:09.703Z,1.88
2022-11-17T13:45:40.448Z,1.35
2022-11-17T13:48:32.400Z,1.70
2022-11-17T13:51:21.011Z,1.80
2022-11-17T13:53:53.693Z,1.92
2022-11-17T13:56:26.096Z,1.48
2022-11-17T13:58:56.556Z,1.73
2022-11-17T14:01:29.151Z,1.25
2022-11-17T14:04:20.383Z,1.25
2022-11-17T14:07:01.503Z,1.50
2022-11-17T14:09:34.499Z,1.42
2022-11-17T14:12:11.063Z,1.60
2022-11-17T14:14:46.379Z,2.30
2022-11-17T14:17:21.521Z,2.75
2022-11-17T14:19:51.492Z,1.85
2022-11-17T14:22:32.101Z,1.42
2022-11-17T14:25:02.191Z,1.63
2022-11-17T14:27:40.950Z,1.73
2022-11-17T14:30:15.866Z,1.70
2022-11-17T14:32:45.737Z,1.80
2022-11-17T14:37:50.357Z,2.03
2022-11-17T14:40:22.741Z,1.88
2022-11-17T14:42:52.492Z,2.15
2022-11-17T14:45:22.343Z,2.25
2022-11-17T14:47:52.387Z,2.38
2022-11-17T14:50:22.568Z,2.80
2022-11-17T14:52:54.940Z,2.20
2022-11-17T14:55:24.839Z,1.77
2022-11-17T14:57:55.128Z,2.13
2022-11-17T15:00:25.296Z,1.83
2022-11-17T15:02:55.060Z,1.98
2022-11-17T15:05:24.845Z,2.28
2022-11-17T15:08:01.502Z,2.30
2022-11-17T15:10:31.372Z,2.35
2022-11-17T15:13:01.152Z,2.17
2022-11-17T15:15:31.516Z,2.15
2022-11-17T15:18:01.288Z,1.90
2022-11-17T15:20:33.788Z,2.03
2022-11-17T15:23:06.307Z,2.20
2022-11-17T15:25:36.148Z,2.30
2022-11-17T15:28:06.076Z,2.20
2022-11-17T15:30:36.409Z,1.92
2022-11-17T15:33:06.258Z,2.58
2022-11-17T15:35:36.188Z,2.47
2022-11-17T15:38:08.880Z,2.30
2022-11-17T15:40:38.840Z,2.30
2022-11-17T15:43:08.629Z,2.67
2022-11-17T15:45:38.450Z,5.07
2022-11-17T15:48:08.608Z,3.10
2022-11-17T15:50:38.353Z,2.50
2022-11-17T15:53:10.680Z,2.55
2022-11-17T15:55:41.222Z,2.80
2022-11-17T15:58:11.032Z,2.40
2022-11-17T16:00:41.810Z,2.08
2022-11-17T16:03:11.618Z,2.38
2022-11-17T16:05:41.416Z,2.80
2022-11-17T16:08:13.821Z,2.58
2022-11-17T16:10:43.656Z,2.53
2022-11-17T16:13:13.463Z,3.67
2022-11-17T16:15:43.261Z,3.83
2022-11-17T16:18:13.044Z,2.17
2022-11-17T16:20:42.939Z,3.00
2022-11-17T16:23:15.463Z,3.13
2022-11-17T16:25:45.977Z,3.00
2022-11-17T16:28:16.634Z,3.10
2022-11-17T16:30:46.768Z,3.60
2022-11-17T16:33:17.655Z,3.22
2022-11-17T16:35:48.134Z,2.75
2022-11-17T16:38:23.466Z,3.28
2022-11-17T16:40:53.440Z,4.28
2022-11-17T16:43:23.244Z,3.55
2022-11-17T16:45:53.200Z,4.47
2022-11-17T16:48:23.340Z,6.32
2022-11-17T16:50:53.272Z,4.72
2022-11-17T16:53:25.674Z,4.18
2022-11-17T16:55:55.832Z,4.20
2022-11-17T16:58:25.681Z,4.60
2022-11-17T17:00:55.555Z,4.32
2022-11-17T17:03:25.409Z,5.47
2022-11-17T17:05:55.276Z,4.95
2022-11-17T17:08:27.642Z,4.78
2022-11-17T17:10:57.442Z,4.40
2022-11-17T17:13:27.216Z,5.03
2022-11-17T17:15:57.112Z,3.85
2022-11-17T17:18:26.969Z,4.22
2022-11-17T17:20:56.733Z,5.88
2022-11-17T17:23:29.704Z,4.63
2022-11-17T17:26:03.987Z,5.60
2022-11-17T17:28:34.300Z,6.78
2022-11-17T17:31:04.456Z,6.63
2022-11-17T17:33:35.470Z,6.57
2022-11-17T17:36:05.665Z,6.13
2022-11-17T17:38:39.097Z,6.28
2022-11-17T17:41:10.052Z,5.53
2022-11-17T17:43:40.509Z,4.15
2022-11-17T17:46:15.775Z,4.80
2022-11-17T17:48:47.343Z,4.50
2022-11-17T17:51:21.119Z,4.40
2022-11-17T17:53:54.101Z,3.70
2022-11-17T17:56:24.832Z,3.97
2022-11-17T17:58:57.626Z,4.00
2022-11-17T18:01:28.829Z,4.35
2022-11-17T18:04:04.954Z,4.43
2022-11-17T18:06:39.297Z,4.47
2022-11-17T18:09:14.787Z,4.60
2022-11-17T18:11:47.819Z,3.70
2022-11-17T18:14:20.305Z,4.20
2022-11-17T18:16:50.408Z,3.35
2022-11-17T18:19:20.752Z,3.25
2022-11-17T18:21:50.546Z,2.92
2022-11-17T18:24:22.949Z,3.25
2022-11-17T18:26:52.844Z,3.05
2022-11-17T18:29:22.668Z,3.05
2022-11-17T18:31:52.496Z,3.85
2022-11-17T18:34:23.785Z,2.67
2022-11-17T18:36:55.491Z,2.95
2022-11-17T18:39:28.425Z,2.95
2022-11-17T18:41:58.382Z,3.15
2022-11-17T18:44:28.198Z,3.85
2022-11-17T18:47:02.579Z,4.10
2022-11-17T18:49:34.608Z,3.90
2022-11-17T18:52:04.452Z,3.95
2022-11-17T18:54:36.940Z,3.92
2022-11-17T18:57:07.703Z,4.00
2022-11-17T18:59:37.550Z,3.10
2022-11-17T19:02:07.404Z,3.42
2022-11-17T19:04:37.234Z,3.35
2022-11-17T19:07:07.163Z,3.45
2022-11-17T19:09:39.644Z,3.30
2022-11-17T19:12:10.906Z,3.42
2022-11-17T19:14:40.788Z,3.50
2022-11-17T19:17:10.582Z,3.03
2022-11-17T19:19:40.373Z,3.33
2022-11-17T19:22:10.252Z,2.88
2022-11-17T19:24:43.871Z,2.92
2022-11-17T19:27:13.757Z,3.30
2022-11-17T19:29:43.600Z,4.40
2022-11-17T19:32:13.471Z,3.92
2022-11-17T19:34:43.976Z,4.50
2022-11-17T19:37:13.899Z,3.90
2022-11-17T19:39:46.529Z,3.47
2022-11-17T19:42:16.341Z,3.85
2022-11-17T19:44:46.135Z,3.92
2022-11-17T19:47:15.975Z,4.60
2022-11-17T19:49:45.812Z,4.57
2022-11-17T19:52:15.638Z,4.78
2022-11-17T19:54:48.051Z,3.00
2022-11-17T19:57:18.161Z,1.75
2022-11-17T19:59:48.276Z,2.22
2022-11-17T20:02:18.242Z,2.47
2022-11-17T20:04:48.072Z,1.80
2022-11-17T20:07:17.959Z,2.55
2022-11-17T20:09:50.372Z,2.60
2022-11-17T20:12:20.188Z,3.03
2022-11-17T20:14:49.959Z,2.35
2022-11-17T20:17:19.999Z,2.25
2022-11-17T20:19:50.680Z,3.10
2022-11-17T20:22:20.544Z,2.35
2022-11-17T20:24:52.982Z,2.03
2022-11-17T20:27:23.823Z,1.88
2022-11-17T20:29:53.605Z,2.00
2022-11-17T20:32:23.465Z,2.10
2022-11-17T20:34:53.284Z,2.03
2022-11-17T20:37:23.191Z,1.88
2022-11-17T20:39:55.611Z,1.70
2022-11-17T20:42:25.377Z,1.20
2022-11-17T20:44:55.121Z,1.60
2022-11-17T20:47:27.599Z,1.55
2022-11-17T20:49:57.927Z,1.23
2022-11-17T20:52:27.709Z,1.13
2022-11-17T20:55:00.131Z,1.17
2022-11-17T20:57:29.969Z,1.00
2022-11-17T20:59:59.704Z,1.27
2022-11-17T21:02:29.457Z,0.90
2022-11-17T21:04:59.331Z,0.70
2022-11-17T21:07:29.170Z,0.70
2022-11-17T21:10:01.694Z,0.77
2022-11-17T21:12:31.924Z,0.80
2022-11-17T21:15:02.139Z,1.08
2022-11-17T21:17:44.472Z,0.73
2022-11-17T21:20:14.717Z,0.80
2022-11-17T21:22:44.572Z,0.52
2022-11-17T21:25:17.122Z,0.80
2022-11-17T21:27:47.010Z,0.68
2022-11-17T21:30:17.320Z,0.50
2022-11-17T21:32:47.145Z,0.60
2022-11-17T21:35:17.095Z,0.60
2022-11-17T21:37:46.973Z,0.60
2022-11-17T21:40:20.240Z,0.90
2022-11-17T21:42:50.076Z,0.93
2022-11-17T21:45:19.917Z,1.00
2022-11-17T21:47:49.720Z,0.60
2022-11-17T21:50:20.200Z,0.77
2022-11-17T21:52:50.068Z,0.57
2022-11-17T21:55:22.496Z,0.55
2022-11-17T21:57:53.136Z,0.60
2022-11-17T22:00:23.173Z,0.50
2022-11-17T22:02:52.999Z,0.60
2022-11-17T22:05:22.784Z,0.43
2022-11-17T22:07:52.751Z,0.55
2022-11-17T22:10:25.135Z,0.52
2022-11-17T22:12:54.946Z,0.60
2022-11-17T22:15:24.727Z,0.80
2022-11-17T22:17:54.535Z,0.50
2022-11-17T22:20:24.384Z,0.50
2022-11-17T22:22:54.299Z,0.80
2022-11-17T22:25:49.830Z,0.63
2022-11-17T22:28:16.601Z,0.77
2022-11-17T22:30:46.552Z,0.80
2022-11-17T22:33:16.356Z,0.80
2022-11-17T22:35:46.558Z,0.73
2022-11-17T22:38:17.612Z,0.65
2022-11-17T22:40:50.015Z,0.90
2022-11-17T22:43:19.844Z,0.70
2022-11-17T22:45:49.594Z,0.88
2022-11-17T22:48:19.416Z,0.45
2022-11-17T22:50:49.227Z,0.80
2022-11-17T22:53:19.325Z,0.70
2022-11-17T22:55:51.696Z,0.88
2022-11-17T22:58:21.664Z,1.50
2022-11-17T23:00:53.043Z,11.43
2022-11-17T23:03:22.956Z,12.77
2022-11-17T23:05:52.815Z,6.68
2022-11-17T23:08:23.077Z,3.28
2022-11-17T23:11:15.031Z,1.63
2022-11-17T23:13:45.327Z,1.15
2022-11-17T23:16:15.177Z,1.25
2022-11-17T23:18:45.069Z,0.68
2022-11-17T23:21:15.308Z,1.02
2022-11-17T23:23:45.135Z,0.63
2022-11-17T23:26:17.841Z,0.68
2022-11-17T23:28:47.681Z,0.55
2022-11-17T23:31:19.468Z,0.70
2022-11-17T23:33:50.352Z,0.57
2022-11-17T23:36:21.520Z,0.75
2022-11-17T23:38:52.793Z,0.50
2022-11-17T23:41:25.263Z,0.40
2022-11-17T23:43:56.473Z,0.57
2022-11-17T23:46:28.397Z,0.50
2022-11-17T23:48:58.660Z,0.60
2022-11-17T23:51:30.048Z,0.60
2022-11-17T23:54:02.813Z,0.65
2022-11-17T23:56:37.776Z,0.75
2022-11-17T23:59:08.404Z,0.60
